sensor_id;sensor_type;location;lat;lon;timestamp;temperature;humidity
75799;DHT22;65035;44.726;37.764;2023-03-23T00:00:19;20.88;55.81
75799;DHT22;65035;44.726;37.764;2023-03-23T00:01:24;20.88;55.83
75799;DHT22;65035;44.726;37.764;2023-03-23T00:02:30;20.88;55.78
75799;DHT22;65035;44.726;37.764;2023-03-23T00:03:34;20.88;55.76
75799;DHT22;65035;44.726;37.764;2023-03-23T00:04:35;20.88;55.77
75799;DHT22;65035;44.726;37.764;2023-03-23T00:05:39;20.88;55.76
75799;DHT22;65035;44.726;37.764;2023-03-23T00:06:43;20.88;55.75
75799;DHT22;65035;44.726;37.764;2023-03-23T00:07:46;20.87;55.78
75799;DHT22;65035;44.726;37.764;2023-03-23T00:08:54;20.88;55.73
75799;DHT22;65035;44.726;37.764;2023-03-23T00:10:00;20.88;55.76
75799;DHT22;65035;44.726;37.764;2023-03-23T00:11:04;20.90;55.76
75799;DHT22;65035;44.726;37.764;2023-03-23T00:12:07;20.87;55.71
75799;DHT22;65035;44.726;37.764;2023-03-23T00:13:09;20.87;55.72
75799;DHT22;65035;44.726;37.764;2023-03-23T00:14:12;20.89;55.73
75799;DHT22;65035;44.726;37.764;2023-03-23T00:15:14;20.88;55.71
75799;DHT22;65035;44.726;37.764;2023-03-23T00:16:20;20.89;55.68
75799;DHT22;65035;44.726;37.764;2023-03-23T00:17:30;20.88;55.68
75799;DHT22;65035;44.726;37.764;2023-03-23T00:18:34;20.87;55.68
75799;DHT22;65035;44.726;37.764;2023-03-23T00:19:38;20.88;55.72
75799;DHT22;65035;44.726;37.764;2023-03-23T00:20:57;20.88;55.74
75799;DHT22;65035;44.726;37.764;2023-03-23T00:21:59;20.87;55.74
75799;DHT22;65035;44.726;37.764;2023-03-23T00:23:02;20.87;55.69
75799;DHT22;65035;44.726;37.764;2023-03-23T00:24:10;20.88;55.76
75799;DHT22;65035;44.726;37.764;2023-03-23T00:25:12;20.88;55.75
75799;DHT22;65035;44.726;37.764;2023-03-23T00:26:14;20.87;55.80
75799;DHT22;65035;44.726;37.764;2023-03-23T00:27:17;20.88;55.74
75799;DHT22;65035;44.726;37.764;2023-03-23T00:28:20;20.88;55.78
75799;DHT22;65035;44.726;37.764;2023-03-23T00:29:28;20.88;55.77
75799;DHT22;65035;44.726;37.764;2023-03-23T00:30:30;20.89;55.81
75799;DHT22;65035;44.726;37.764;2023-03-23T00:31:34;20.88;55.78
75799;DHT22;65035;44.726;37.764;2023-03-23T00:32:37;20.88;55.82
75799;DHT22;65035;44.726;37.764;2023-03-23T00:33:39;20.89;55.81
75799;DHT22;65035;44.726;37.764;2023-03-23T00:34:44;20.88;55.84
75799;DHT22;65035;44.726;37.764;2023-03-23T00:36:36;20.88;55.84
75799;DHT22;65035;44.726;37.764;2023-03-23T00:37:47;20.88;55.85
75799;DHT22;65035;44.726;37.764;2023-03-23T00:38:49;20.88;55.84
75799;DHT22;65035;44.726;37.764;2023-03-23T00:39:54;20.88;55.84
75799;DHT22;65035;44.726;37.764;2023-03-23T00:40:58;20.87;55.82
75799;DHT22;65035;44.726;37.764;2023-03-23T00:42:04;20.89;55.77
75799;DHT22;65035;44.726;37.764;2023-03-23T00:43:06;20.88;55.82
75799;DHT22;65035;44.726;37.764;2023-03-23T00:44:09;20.87;55.81
75799;DHT22;65035;44.726;37.764;2023-03-23T00:45:11;20.88;55.79
75799;DHT22;65035;44.726;37.764;2023-03-23T00:47:49;20.88;55.85
75799;DHT22;65035;44.726;37.764;2023-03-23T00:49:01;20.86;55.78
75799;DHT22;65035;44.726;37.764;2023-03-23T00:50:04;20.87;55.83
75799;DHT22;65035;44.726;37.764;2023-03-23T00:51:56;20.88;55.84
75799;DHT22;65035;44.726;37.764;2023-03-23T00:53:54;20.88;55.88
75799;DHT22;65035;44.726;37.764;2023-03-23T00:54:56;20.87;55.88
75799;DHT22;65035;44.726;37.764;2023-03-23T00:56:55;20.88;55.86
75799;DHT22;65035;44.726;37.764;2023-03-23T00:57:57;20.87;55.89
75799;DHT22;65035;44.726;37.764;2023-03-23T00:58:59;20.87;55.91
75799;DHT22;65035;44.726;37.764;2023-03-23T01:00:01;20.87;55.84
75799;DHT22;65035;44.726;37.764;2023-03-23T01:01:05;20.87;55.82
75799;DHT22;65035;44.726;37.764;2023-03-23T01:02:08;20.87;55.75
75799;DHT22;65035;44.726;37.764;2023-03-23T01:03:10;20.88;55.80
75799;DHT22;65035;44.726;37.764;2023-03-23T01:04:19;20.89;55.71
75799;DHT22;65035;44.726;37.764;2023-03-23T01:05:22;20.88;55.64
75799;DHT22;65035;44.726;37.764;2023-03-23T01:06:24;20.88;55.64
75799;DHT22;65035;44.726;37.764;2023-03-23T01:07:26;20.88;55.64
75799;DHT22;65035;44.726;37.764;2023-03-23T01:08:36;20.89;55.63
75799;DHT22;65035;44.726;37.764;2023-03-23T01:09:40;20.88;55.53
75799;DHT22;65035;44.726;37.764;2023-03-23T01:10:48;20.89;55.51
75799;DHT22;65035;44.726;37.764;2023-03-23T01:11:50;20.88;55.52
75799;DHT22;65035;44.726;37.764;2023-03-23T01:12:53;20.88;55.50
75799;DHT22;65035;44.726;37.764;2023-03-23T01:15:33;20.89;55.56
75799;DHT22;65035;44.726;37.764;2023-03-23T01:16:37;20.88;55.52
75799;DHT22;65035;44.726;37.764;2023-03-23T01:21:17;20.89;55.42
75799;DHT22;65035;44.726;37.764;2023-03-23T01:22:25;20.88;55.48
75799;DHT22;65035;44.726;37.764;2023-03-23T01:23:27;20.88;55.50
75799;DHT22;65035;44.726;37.764;2023-03-23T01:24:28;20.88;55.53
75799;DHT22;65035;44.726;37.764;2023-03-23T01:25:34;20.88;55.45
75799;DHT22;65035;44.726;37.764;2023-03-23T01:26:36;20.86;55.49
75799;DHT22;65035;44.726;37.764;2023-03-23T01:27:39;20.87;55.49
75799;DHT22;65035;44.726;37.764;2023-03-23T01:28:42;20.87;55.51
75799;DHT22;65035;44.726;37.764;2023-03-23T01:29:44;20.88;55.49
75799;DHT22;65035;44.726;37.764;2023-03-23T01:30:46;20.87;55.55
75799;DHT22;65035;44.726;37.764;2023-03-23T01:31:48;20.86;55.35
75799;DHT22;65035;44.726;37.764;2023-03-23T01:32:50;20.87;55.39
75799;DHT22;65035;44.726;37.764;2023-03-23T01:33:53;20.88;55.36
75799;DHT22;65035;44.726;37.764;2023-03-23T01:34:57;20.88;55.40
75799;DHT22;65035;44.726;37.764;2023-03-23T01:37:34;20.88;55.42
75799;DHT22;65035;44.726;37.764;2023-03-23T01:38:38;20.86;55.46
75799;DHT22;65035;44.726;37.764;2023-03-23T01:39:40;20.87;55.36
75799;DHT22;65035;44.726;37.764;2023-03-23T01:40:43;20.88;55.28
75799;DHT22;65035;44.726;37.764;2023-03-23T01:41:46;20.87;55.26
75799;DHT22;65035;44.726;37.764;2023-03-23T01:42:52;20.87;55.30
75799;DHT22;65035;44.726;37.764;2023-03-23T01:43:55;20.87;55.35
75799;DHT22;65035;44.726;37.764;2023-03-23T01:46:21;20.88;55.37
75799;DHT22;65035;44.726;37.764;2023-03-23T01:47:26;20.88;55.29
75799;DHT22;65035;44.726;37.764;2023-03-23T01:48:30;20.88;55.30
75799;DHT22;65035;44.726;37.764;2023-03-23T01:49:38;20.87;55.36
75799;DHT22;65035;44.726;37.764;2023-03-23T01:50:50;20.87;55.29
75799;DHT22;65035;44.726;37.764;2023-03-23T01:52:42;20.87;55.33
75799;DHT22;65035;44.726;37.764;2023-03-23T01:53:51;20.87;55.32
75799;DHT22;65035;44.726;37.764;2023-03-23T01:55:53;20.88;55.23
75799;DHT22;65035;44.726;37.764;2023-03-23T01:57:04;20.86;55.26
75799;DHT22;65035;44.726;37.764;2023-03-23T01:59:04;20.87;55.31
75799;DHT22;65035;44.726;37.764;2023-03-23T02:01:58;20.87;55.30
75799;DHT22;65035;44.726;37.764;2023-03-23T02:03:02;20.86;55.29
75799;DHT22;65035;44.726;37.764;2023-03-23T02:04:59;20.86;55.20
75799;DHT22;65035;44.726;37.764;2023-03-23T02:06:07;20.86;55.21
75799;DHT22;65035;44.726;37.764;2023-03-23T02:07:27;20.85;55.26
75799;DHT22;65035;44.726;37.764;2023-03-23T02:08:32;20.85;55.21
75799;DHT22;65035;44.726;37.764;2023-03-23T02:09:36;20.86;55.26
75799;DHT22;65035;44.726;37.764;2023-03-23T02:10:38;20.86;55.22
75799;DHT22;65035;44.726;37.764;2023-03-23T02:11:40;20.86;55.26
75799;DHT22;65035;44.726;37.764;2023-03-23T02:12:42;20.85;55.25
75799;DHT22;65035;44.726;37.764;2023-03-23T02:13:45;20.84;55.19
75799;DHT22;65035;44.726;37.764;2023-03-23T02:14:47;20.86;55.14
75799;DHT22;65035;44.726;37.764;2023-03-23T02:17:31;20.85;55.20
75799;DHT22;65035;44.726;37.764;2023-03-23T02:20:17;20.85;55.12
75799;DHT22;65035;44.726;37.764;2023-03-23T02:24:57;20.86;55.16
75799;DHT22;65035;44.726;37.764;2023-03-23T02:35:37;20.86;55.07
75799;DHT22;65035;44.726;37.764;2023-03-23T02:37:49;20.86;55.07
75799;DHT22;65035;44.726;37.764;2023-03-23T02:40:14;20.85;54.98
75799;DHT22;65035;44.726;37.764;2023-03-23T02:41:24;20.85;55.03
75799;DHT22;65035;44.726;37.764;2023-03-23T02:42:29;20.85;55.04
75799;DHT22;65035;44.726;37.764;2023-03-23T02:43:40;20.84;55.00
75799;DHT22;65035;44.726;37.764;2023-03-23T02:44:45;20.85;55.01
75799;DHT22;65035;44.726;37.764;2023-03-23T02:45:50;20.85;54.99
75799;DHT22;65035;44.726;37.764;2023-03-23T02:46:53;20.84;55.04
75799;DHT22;65035;44.726;37.764;2023-03-23T02:47:56;20.85;55.00
75799;DHT22;65035;44.726;37.764;2023-03-23T02:48:58;20.85;54.95
75799;DHT22;65035;44.726;37.764;2023-03-23T02:50:02;20.85;54.94
75799;DHT22;65035;44.726;37.764;2023-03-23T02:51:06;20.85;54.97
75799;DHT22;65035;44.726;37.764;2023-03-23T02:52:12;20.86;54.94
75799;DHT22;65035;44.726;37.764;2023-03-23T02:53:20;20.86;54.96
75799;DHT22;65035;44.726;37.764;2023-03-23T02:54:26;20.85;54.91
75799;DHT22;65035;44.726;37.764;2023-03-23T02:55:31;20.85;54.93
75799;DHT22;65035;44.726;37.764;2023-03-23T02:56:37;20.85;54.93
75799;DHT22;65035;44.726;37.764;2023-03-23T02:57:46;20.86;54.90
75799;DHT22;65035;44.726;37.764;2023-03-23T02:58:50;20.85;54.91
75799;DHT22;65035;44.726;37.764;2023-03-23T03:00:41;20.86;54.91
75799;DHT22;65035;44.726;37.764;2023-03-23T03:03:32;20.85;54.87
75799;DHT22;65035;44.726;37.764;2023-03-23T03:04:34;20.84;54.89
75799;DHT22;65035;44.726;37.764;2023-03-23T03:10:04;20.85;54.89
75799;DHT22;65035;44.726;37.764;2023-03-23T03:11:10;20.84;54.87
75799;DHT22;65035;44.726;37.764;2023-03-23T03:14:05;20.84;54.89
75799;DHT22;65035;44.726;37.764;2023-03-23T03:15:29;20.84;54.79
75799;DHT22;65035;44.726;37.764;2023-03-23T03:17:45;20.83;54.83
75799;DHT22;65035;44.726;37.764;2023-03-23T03:20:02;20.84;54.89
75799;DHT22;65035;44.726;37.764;2023-03-23T03:21:12;20.84;54.93
75799;DHT22;65035;44.726;37.764;2023-03-23T03:22:19;20.83;54.87
75799;DHT22;65035;44.726;37.764;2023-03-23T03:23:25;20.83;54.83
75799;DHT22;65035;44.726;37.764;2023-03-23T03:24:32;20.83;54.78
75799;DHT22;65035;44.726;37.764;2023-03-23T03:25:34;20.83;54.83
75799;DHT22;65035;44.726;37.764;2023-03-23T03:26:40;20.83;54.88
75799;DHT22;65035;44.726;37.764;2023-03-23T03:27:54;20.85;54.87
75799;DHT22;65035;44.726;37.764;2023-03-23T03:29:21;20.84;54.80
75799;DHT22;65035;44.726;37.764;2023-03-23T03:30:30;20.84;54.91
75799;DHT22;65035;44.726;37.764;2023-03-23T03:31:38;20.83;55.13
75799;DHT22;65035;44.726;37.764;2023-03-23T03:32:44;20.84;54.99
75799;DHT22;65035;44.726;37.764;2023-03-23T03:33:48;20.84;54.97
75799;DHT22;65035;44.726;37.764;2023-03-23T03:34:50;20.84;55.05
75799;DHT22;65035;44.726;37.764;2023-03-23T03:36:53;20.85;54.86
75799;DHT22;65035;44.726;37.764;2023-03-23T03:37:57;20.83;55.05
75799;DHT22;65035;44.726;37.764;2023-03-23T03:39:08;20.84;54.94
75799;DHT22;65035;44.726;37.764;2023-03-23T03:40:15;20.84;55.05
75799;DHT22;65035;44.726;37.764;2023-03-23T03:41:18;20.84;55.07
75799;DHT22;65035;44.726;37.764;2023-03-23T03:42:22;20.85;55.04
75799;DHT22;65035;44.726;37.764;2023-03-23T03:43:26;20.85;55.07
75799;DHT22;65035;44.726;37.764;2023-03-23T03:44:28;20.85;55.07
75799;DHT22;65035;44.726;37.764;2023-03-23T03:45:31;20.85;55.03
75799;DHT22;65035;44.726;37.764;2023-03-23T03:46:34;20.84;55.07
75799;DHT22;65035;44.726;37.764;2023-03-23T03:47:36;20.87;55.04
75799;DHT22;65035;44.726;37.764;2023-03-23T03:48:38;20.87;55.10
75799;DHT22;65035;44.726;37.764;2023-03-23T03:49:40;20.86;55.13
75799;DHT22;65035;44.726;37.764;2023-03-23T03:50:42;20.87;55.10
75799;DHT22;65035;44.726;37.764;2023-03-23T03:51:45;20.87;55.02
75799;DHT22;65035;44.726;37.764;2023-03-23T03:52:54;20.87;54.89
75799;DHT22;65035;44.726;37.764;2023-03-23T03:53:57;20.87;54.88
75799;DHT22;65035;44.726;37.764;2023-03-23T03:54:59;20.87;54.81
75799;DHT22;65035;44.726;37.764;2023-03-23T03:56:02;20.87;54.83
75799;DHT22;65035;44.726;37.764;2023-03-23T03:57:12;20.87;54.77
75799;DHT22;65035;44.726;37.764;2023-03-23T03:58:32;20.87;54.78
75799;DHT22;65035;44.726;37.764;2023-03-23T03:59:55;20.87;54.74
75799;DHT22;65035;44.726;37.764;2023-03-23T04:01:17;20.89;54.76
75799;DHT22;65035;44.726;37.764;2023-03-23T04:02:19;20.88;54.81
75799;DHT22;65035;44.726;37.764;2023-03-23T04:03:23;20.89;54.78
75799;DHT22;65035;44.726;37.764;2023-03-23T04:04:39;20.89;55.07
75799;DHT22;65035;44.726;37.764;2023-03-23T04:05:42;20.89;55.13
75799;DHT22;65035;44.726;37.764;2023-03-23T04:06:46;20.89;55.33
75799;DHT22;65035;44.726;37.764;2023-03-23T04:07:51;20.89;55.20
75799;DHT22;65035;44.726;37.764;2023-03-23T04:08:58;20.89;55.32
75799;DHT22;65035;44.726;37.764;2023-03-23T04:10:00;20.90;55.26
75799;DHT22;65035;44.726;37.764;2023-03-23T04:11:04;20.90;55.28
75799;DHT22;65035;44.726;37.764;2023-03-23T04:12:07;20.90;55.26
75799;DHT22;65035;44.726;37.764;2023-03-23T04:13:47;20.91;55.41
75799;DHT22;65035;44.726;37.764;2023-03-23T04:14:57;20.91;55.52
75799;DHT22;65035;44.726;37.764;2023-03-23T04:16:09;20.92;55.57
75799;DHT22;65035;44.726;37.764;2023-03-23T04:17:11;20.92;55.42
75799;DHT22;65035;44.726;37.764;2023-03-23T04:18:13;20.92;55.17
75799;DHT22;65035;44.726;37.764;2023-03-23T04:19:18;20.93;55.16
75799;DHT22;65035;44.726;37.764;2023-03-23T04:20:20;20.93;55.16
75799;DHT22;65035;44.726;37.764;2023-03-23T04:21:25;20.93;55.19
75799;DHT22;65035;44.726;37.764;2023-03-23T04:22:30;20.93;55.26
75799;DHT22;65035;44.726;37.764;2023-03-23T04:23:34;20.92;55.27
75799;DHT22;65035;44.726;37.764;2023-03-23T04:24:41;20.93;55.12
75799;DHT22;65035;44.726;37.764;2023-03-23T04:25:49;20.92;55.21
75799;DHT22;65035;44.726;37.764;2023-03-23T04:26:53;20.93;55.40
75799;DHT22;65035;44.726;37.764;2023-03-23T04:28:01;20.93;55.42
75799;DHT22;65035;44.726;37.764;2023-03-23T04:29:08;20.94;55.59
75799;DHT22;65035;44.726;37.764;2023-03-23T04:30:30;20.94;55.52
75799;DHT22;65035;44.726;37.764;2023-03-23T04:31:42;20.93;55.50
75799;DHT22;65035;44.726;37.764;2023-03-23T04:33:08;20.95;55.48
75799;DHT22;65035;44.726;37.764;2023-03-23T04:34:11;20.94;55.54
75799;DHT22;65035;44.726;37.764;2023-03-23T04:35:20;20.95;55.39
75799;DHT22;65035;44.726;37.764;2023-03-23T04:36:28;20.94;55.29
75799;DHT22;65035;44.726;37.764;2023-03-23T04:37:35;20.94;55.10
75799;DHT22;65035;44.726;37.764;2023-03-23T04:38:39;20.94;55.04
75799;DHT22;65035;44.726;37.764;2023-03-23T04:39:52;20.92;55.02
75799;DHT22;65035;44.726;37.764;2023-03-23T04:41:01;20.92;55.04
75799;DHT22;65035;44.726;37.764;2023-03-23T04:43:12;20.94;55.36
75799;DHT22;65035;44.726;37.764;2023-03-23T04:44:28;20.94;55.26
75799;DHT22;65035;44.726;37.764;2023-03-23T04:45:41;20.94;55.26
75799;DHT22;65035;44.726;37.764;2023-03-23T04:46:48;20.94;55.22
75799;DHT22;65035;44.726;37.764;2023-03-23T04:47:56;20.93;55.14
75799;DHT22;65035;44.726;37.764;2023-03-23T04:49:14;20.93;55.10
75799;DHT22;65035;44.726;37.764;2023-03-23T04:50:16;20.93;55.10
75799;DHT22;65035;44.726;37.764;2023-03-23T04:51:19;20.93;55.11
75799;DHT22;65035;44.726;37.764;2023-03-23T04:52:25;20.93;55.16
75799;DHT22;65035;44.726;37.764;2023-03-23T04:53:34;20.93;55.20
75799;DHT22;65035;44.726;37.764;2023-03-23T04:54:37;20.93;55.23
75799;DHT22;65035;44.726;37.764;2023-03-23T04:55:39;20.93;55.23
75799;DHT22;65035;44.726;37.764;2023-03-23T04:56:45;20.93;55.21
75799;DHT22;65035;44.726;37.764;2023-03-23T04:57:49;20.93;55.20
75799;DHT22;65035;44.726;37.764;2023-03-23T04:59:10;20.93;55.28
75799;DHT22;65035;44.726;37.764;2023-03-23T05:00:23;20.95;55.24
75799;DHT22;65035;44.726;37.764;2023-03-23T05:01:28;20.93;55.26
75799;DHT22;65035;44.726;37.764;2023-03-23T05:02:56;20.92;55.23
75799;DHT22;65035;44.726;37.764;2023-03-23T05:04:01;20.94;55.28
75799;DHT22;65035;44.726;37.764;2023-03-23T05:05:08;20.93;55.28
75799;DHT22;65035;44.726;37.764;2023-03-23T05:06:11;20.93;55.23
75799;DHT22;65035;44.726;37.764;2023-03-23T05:07:14;20.93;55.20
75799;DHT22;65035;44.726;37.764;2023-03-23T05:08:23;20.94;55.33
75799;DHT22;65035;44.726;37.764;2023-03-23T05:09:28;20.94;55.33
75799;DHT22;65035;44.726;37.764;2023-03-23T05:10:30;20.94;55.47
75799;DHT22;65035;44.726;37.764;2023-03-23T05:11:38;20.94;55.49
75799;DHT22;65035;44.726;37.764;2023-03-23T05:12:41;20.98;55.48
75799;DHT22;65035;44.726;37.764;2023-03-23T05:13:45;20.96;55.45
75799;DHT22;65035;44.726;37.764;2023-03-23T05:14:47;20.95;55.48
75799;DHT22;65035;44.726;37.764;2023-03-23T05:15:52;20.96;55.34
75799;DHT22;65035;44.726;37.764;2023-03-23T05:16:54;20.96;55.41
75799;DHT22;65035;44.726;37.764;2023-03-23T05:17:57;20.98;55.36
75799;DHT22;65035;44.726;37.764;2023-03-23T05:18:59;20.98;55.34
75799;DHT22;65035;44.726;37.764;2023-03-23T05:20:04;20.98;55.26
75799;DHT22;65035;44.726;37.764;2023-03-23T05:21:18;20.98;55.36
75799;DHT22;65035;44.726;37.764;2023-03-23T05:22:28;20.96;55.34
75799;DHT22;65035;44.726;37.764;2023-03-23T05:24:18;20.98;55.32
75799;DHT22;65035;44.726;37.764;2023-03-23T05:25:20;20.98;55.34
75799;DHT22;65035;44.726;37.764;2023-03-23T05:26:28;20.99;55.36
75799;DHT22;65035;44.726;37.764;2023-03-23T05:27:38;20.96;55.33
75799;DHT22;65035;44.726;37.764;2023-03-23T05:28:52;20.98;55.33
75799;DHT22;65035;44.726;37.764;2023-03-23T05:29:58;20.98;55.32
75799;DHT22;65035;44.726;37.764;2023-03-23T05:31:03;20.98;55.30
75799;DHT22;65035;44.726;37.764;2023-03-23T05:32:08;20.98;55.34
75799;DHT22;65035;44.726;37.764;2023-03-23T05:33:12;20.96;55.35
75799;DHT22;65035;44.726;37.764;2023-03-23T05:34:26;20.98;55.32
75799;DHT22;65035;44.726;37.764;2023-03-23T05:35:32;20.96;55.28
75799;DHT22;65035;44.726;37.764;2023-03-23T05:36:34;20.99;55.29
75799;DHT22;65035;44.726;37.764;2023-03-23T05:37:50;20.98;55.29
75799;DHT22;65035;44.726;37.764;2023-03-23T05:38:56;20.96;55.28
75799;DHT22;65035;44.726;37.764;2023-03-23T05:40:12;20.96;55.27
75799;DHT22;65035;44.726;37.764;2023-03-23T05:41:18;20.96;55.32
75799;DHT22;65035;44.726;37.764;2023-03-23T05:42:23;20.98;55.30
75799;DHT22;65035;44.726;37.764;2023-03-23T05:43:36;20.98;55.33
75799;DHT22;65035;44.726;37.764;2023-03-23T05:44:54;20.96;55.23
75799;DHT22;65035;44.726;37.764;2023-03-23T05:45:56;20.98;55.28
75799;DHT22;65035;44.726;37.764;2023-03-23T05:46:58;20.96;55.23
75799;DHT22;65035;44.726;37.764;2023-03-23T05:47:59;20.98;55.27
75799;DHT22;65035;44.726;37.764;2023-03-23T05:49:03;20.98;55.22
75799;DHT22;65035;44.726;37.764;2023-03-23T05:50:11;21.00;55.23
75799;DHT22;65035;44.726;37.764;2023-03-23T05:51:14;20.99;55.26
75799;DHT22;65035;44.726;37.764;2023-03-23T05:52:19;20.98;55.26
75799;DHT22;65035;44.726;37.764;2023-03-23T05:53:22;20.99;55.24
75799;DHT22;65035;44.726;37.764;2023-03-23T05:54:25;21.00;55.23
75799;DHT22;65035;44.726;37.764;2023-03-23T05:55:27;21.01;55.23
75799;DHT22;65035;44.726;37.764;2023-03-23T05:57:30;20.99;55.22
75799;DHT22;65035;44.726;37.764;2023-03-23T05:58:47;20.98;55.20
75799;DHT22;65035;44.726;37.764;2023-03-23T05:59:49;21.00;55.20
75799;DHT22;65035;44.726;37.764;2023-03-23T06:00:56;20.99;55.23
75799;DHT22;65035;44.726;37.764;2023-03-23T06:02:04;21.00;55.21
75799;DHT22;65035;44.726;37.764;2023-03-23T06:03:08;20.99;55.21
75799;DHT22;65035;44.726;37.764;2023-03-23T06:04:21;21.00;55.20
75799;DHT22;65035;44.726;37.764;2023-03-23T06:05:36;21.00;55.23
75799;DHT22;65035;44.726;37.764;2023-03-23T06:06:43;20.99;55.21
75799;DHT22;65035;44.726;37.764;2023-03-23T06:07:45;21.00;55.23
75799;DHT22;65035;44.726;37.764;2023-03-23T06:08:47;21.00;55.20
75799;DHT22;65035;44.726;37.764;2023-03-23T06:09:55;21.00;55.21
75799;DHT22;65035;44.726;37.764;2023-03-23T06:11:10;21.00;55.20
75799;DHT22;65035;44.726;37.764;2023-03-23T06:12:20;21.00;55.15
75799;DHT22;65035;44.726;37.764;2023-03-23T06:13:42;21.00;55.16
75799;DHT22;65035;44.726;37.764;2023-03-23T06:14:46;21.01;55.20
75799;DHT22;65035;44.726;37.764;2023-03-23T06:17:28;21.00;55.23
75799;DHT22;65035;44.726;37.764;2023-03-23T06:18:30;21.00;55.23
75799;DHT22;65035;44.726;37.764;2023-03-23T06:19:47;20.99;55.21
75799;DHT22;65035;44.726;37.764;2023-03-23T06:20:52;21.01;55.20
75799;DHT22;65035;44.726;37.764;2023-03-23T06:22:05;21.00;55.23
75799;DHT22;65035;44.726;37.764;2023-03-23T06:23:18;21.01;55.20
75799;DHT22;65035;44.726;37.764;2023-03-23T06:24:21;20.99;55.19
75799;DHT22;65035;44.726;37.764;2023-03-23T06:25:24;21.00;55.20
75799;DHT22;65035;44.726;37.764;2023-03-23T06:26:32;21.00;55.25
75799;DHT22;65035;44.726;37.764;2023-03-23T06:27:37;21.01;55.20
75799;DHT22;65035;44.726;37.764;2023-03-23T06:28:39;21.02;55.20
75799;DHT22;65035;44.726;37.764;2023-03-23T06:29:42;21.01;55.18
75799;DHT22;65035;44.726;37.764;2023-03-23T06:30:44;21.01;55.20
75799;DHT22;65035;44.726;37.764;2023-03-23T06:31:48;21.01;55.22
75799;DHT22;65035;44.726;37.764;2023-03-23T06:32:53;21.01;55.23
75799;DHT22;65035;44.726;37.764;2023-03-23T06:34:13;21.02;55.23
75799;DHT22;65035;44.726;37.764;2023-03-23T06:35:22;21.01;55.22
75799;DHT22;65035;44.726;37.764;2023-03-23T06:36:47;21.01;55.20
75799;DHT22;65035;44.726;37.764;2023-03-23T06:37:59;21.02;55.16
75799;DHT22;65035;44.726;37.764;2023-03-23T06:39:10;21.02;55.20
75799;DHT22;65035;44.726;37.764;2023-03-23T06:40:29;21.03;55.18
75799;DHT22;65035;44.726;37.764;2023-03-23T06:41:32;21.03;55.16
75799;DHT22;65035;44.726;37.764;2023-03-23T06:42:34;21.04;55.22
75799;DHT22;65035;44.726;37.764;2023-03-23T06:43:57;21.03;55.24
75799;DHT22;65035;44.726;37.764;2023-03-23T06:45:05;21.03;55.21
75799;DHT22;65035;44.726;37.764;2023-03-23T06:46:10;21.02;55.24
75799;DHT22;65035;44.726;37.764;2023-03-23T06:47:15;21.05;55.19
75799;DHT22;65035;44.726;37.764;2023-03-23T06:48:21;21.03;55.23
75799;DHT22;65035;44.726;37.764;2023-03-23T06:49:24;21.05;55.21
75799;DHT22;65035;44.726;37.764;2023-03-23T06:50:32;21.04;55.23
75799;DHT22;65035;44.726;37.764;2023-03-23T06:51:35;21.05;55.23
75799;DHT22;65035;44.726;37.764;2023-03-23T06:52:38;21.06;55.21
75799;DHT22;65035;44.726;37.764;2023-03-23T06:53:39;21.05;55.21
75799;DHT22;65035;44.726;37.764;2023-03-23T06:54:45;21.05;55.20
75799;DHT22;65035;44.726;37.764;2023-03-23T06:55:48;21.05;55.20
75799;DHT22;65035;44.726;37.764;2023-03-23T06:56:50;21.05;55.20
75799;DHT22;65035;44.726;37.764;2023-03-23T06:57:52;21.05;55.22
75799;DHT22;65035;44.726;37.764;2023-03-23T06:58:53;21.07;55.23
75799;DHT22;65035;44.726;37.764;2023-03-23T06:59:56;21.06;55.16
75799;DHT22;65035;44.726;37.764;2023-03-23T07:00:59;21.07;55.23
75799;DHT22;65035;44.726;37.764;2023-03-23T07:02:11;21.07;55.21
75799;DHT22;65035;44.726;37.764;2023-03-23T07:03:13;21.06;55.23
75799;DHT22;65035;44.726;37.764;2023-03-23T07:04:16;21.07;55.20
75799;DHT22;65035;44.726;37.764;2023-03-23T07:05:25;21.07;55.22
75799;DHT22;65035;44.726;37.764;2023-03-23T07:06:30;21.07;55.20
75799;DHT22;65035;44.726;37.764;2023-03-23T07:07:39;21.07;55.20
75799;DHT22;65035;44.726;37.764;2023-03-23T07:08:58;21.07;55.24
75799;DHT22;65035;44.726;37.764;2023-03-23T07:10:05;21.08;55.23
75799;DHT22;65035;44.726;37.764;2023-03-23T07:11:08;21.08;55.26
75799;DHT22;65035;44.726;37.764;2023-03-23T07:12:11;21.10;55.16
75799;DHT22;65035;44.726;37.764;2023-03-23T07:13:20;21.09;55.19
75799;DHT22;65035;44.726;37.764;2023-03-23T07:14:26;21.09;55.19
75799;DHT22;65035;44.726;37.764;2023-03-23T07:15:28;21.10;55.18
75799;DHT22;65035;44.726;37.764;2023-03-23T07:16:31;21.10;55.17
75799;DHT22;65035;44.726;37.764;2023-03-23T07:17:33;21.10;55.20
75799;DHT22;65035;44.726;37.764;2023-03-23T07:18:51;21.10;55.23
75799;DHT22;65035;44.726;37.764;2023-03-23T07:19:53;21.10;55.22
75799;DHT22;65035;44.726;37.764;2023-03-23T07:20:56;21.10;55.18
75799;DHT22;65035;44.726;37.764;2023-03-23T07:22:05;21.11;55.19
75799;DHT22;65035;44.726;37.764;2023-03-23T07:23:08;21.10;55.21
75799;DHT22;65035;44.726;37.764;2023-03-23T07:24:16;21.10;55.19
75799;DHT22;65035;44.726;37.764;2023-03-23T07:25:49;21.10;55.15
75799;DHT22;65035;44.726;37.764;2023-03-23T07:26:56;21.11;55.19
75799;DHT22;65035;44.726;37.764;2023-03-23T07:28:02;21.11;55.21
75799;DHT22;65035;44.726;37.764;2023-03-23T07:29:04;21.13;55.19
75799;DHT22;65035;44.726;37.764;2023-03-23T07:30:13;21.13;55.23
75799;DHT22;65035;44.726;37.764;2023-03-23T07:31:16;21.13;55.19
75799;DHT22;65035;44.726;37.764;2023-03-23T07:32:18;21.13;55.15
75799;DHT22;65035;44.726;37.764;2023-03-23T07:33:20;21.13;55.19
75799;DHT22;65035;44.726;37.764;2023-03-23T07:34:23;21.15;55.19
75799;DHT22;65035;44.726;37.764;2023-03-23T07:35:46;21.15;55.18
75799;DHT22;65035;44.726;37.764;2023-03-23T07:36:51;21.15;55.16
75799;DHT22;65035;44.726;37.764;2023-03-23T07:37:53;21.16;55.18
75799;DHT22;65035;44.726;37.764;2023-03-23T07:38:58;21.15;55.20
75799;DHT22;65035;44.726;37.764;2023-03-23T07:40:00;21.15;55.16
75799;DHT22;65035;44.726;37.764;2023-03-23T07:41:09;21.16;55.19
75799;DHT22;65035;44.726;37.764;2023-03-23T07:42:13;21.16;55.16
75799;DHT22;65035;44.726;37.764;2023-03-23T07:45:14;21.17;55.20
75799;DHT22;65035;44.726;37.764;2023-03-23T07:46:16;21.16;55.21
75799;DHT22;65035;44.726;37.764;2023-03-23T07:48:25;21.16;55.17